Time;durP1;ratioP1;P1;durP2;ratioP2;P2;SDS_P1;SDS_P2;PMS_P1;PMS_P2;Temp;Humidity;BMP_temperature;BMP_pressure;BME280_temperature;BME280_humidity;BME280_pressure;Samples;Min_cycle;Max_cycle;Signal;HPM_P1;HPM_P2
2022/07/22 00:00:10;;;;;;;0.00;0.00;;;17.50;78.70;;;18.85;66.75;102141.03;2064249;28;20077;-61
2022/07/22 00:01:13;;;;;;;0.00;0.00;;;17.50;78.50;;;18.86;66.91;102145.38;2063285;28;20180;-61
2022/07/22 00:02:16;;;;;;;0.10;0.10;;;17.50;78.60;;;18.87;67.00;102146.94;2062275;28;20050;-61
2022/07/22 00:03:20;;;;;;;0.10;0.10;;;17.60;78.60;;;18.89;66.71;102147.38;2064601;28;20054;-61
2022/07/22 00:04:23;;;;;;;0.00;0.00;;;17.60;78.50;;;18.89;66.54;102147.38;2064980;28;20082;-61
2022/07/22 00:05:26;;;;;;;0.10;0.10;;;17.60;78.30;;;18.89;66.67;102152.06;2060422;28;20046;-61
2022/07/22 00:06:31;;;;;;;0.10;0.10;;;17.60;78.20;;;18.88;66.46;102151.28;2064673;28;20061;-61
2022/07/22 00:07:33;;;;;;;0.10;0.10;;;17.60;78.10;;;18.89;66.63;102144.66;2062659;28;20417;-62
2022/07/22 00:08:38;;;;;;;0.10;0.10;;;17.60;78.20;;;18.89;66.70;102143.84;2060732;28;20131;-61
2022/07/22 00:09:41;;;;;;;0.10;0.10;;;17.60;78.30;;;18.89;66.62;102144.66;2062746;28;20391;-61
2022/07/22 00:10:44;;;;;;;0.10;0.10;;;17.60;78.10;;;18.88;66.75;102145.81;2064563;28;20447;-58
2022/07/22 00:11:47;;;;;;;0.10;0.10;;;17.60;78.10;;;18.88;66.63;102155.97;2057197;28;20585;-59
2022/07/22 00:12:50;;;;;;;0.10;0.10;;;17.60;78.10;;;18.87;66.67;102152.44;2060856;28;20077;-59
2022/07/22 00:13:52;;;;;;;0.00;0.00;;;17.60;78.00;;;18.86;66.52;102150.84;2057216;28;20165;-60
2022/07/22 00:14:56;;;;;;;0.08;0.08;;;17.60;77.80;;;18.84;66.30;102153.16;2056712;28;20541;-60
2022/07/22 00:15:58;;;;;;;0.00;0.00;;;17.60;77.70;;;18.84;66.57;102149.63;2058901;28;20530;-61
2022/07/22 00:17:02;;;;;;;0.03;0.03;;;17.60;77.80;;;18.84;66.51;102155.91;2057168;28;20054;-60
2022/07/22 00:18:04;;;;;;;0.10;0.10;;;17.60;77.90;;;18.84;66.22;102150.41;2057405;28;20582;-64
2022/07/22 00:19:08;;;;;;;0.10;0.10;;;17.50;77.80;;;18.84;66.44;102158.63;2064639;28;20059;-60
2022/07/22 00:20:11;;;;;;;0.00;0.00;;;17.50;77.70;;;18.84;66.35;102146.88;2057224;28;20129;-61
2022/07/22 00:21:14;;;;;;;0.00;0.00;;;17.50;77.80;;;18.84;66.38;102155.91;2061912;28;20138;-60
2022/07/22 00:22:17;;;;;;;0.10;0.10;;;17.50;77.80;;;18.81;66.35;102153.88;2056642;28;20055;-60
2022/07/22 00:23:22;;;;;;;0.03;0.03;;;17.50;77.70;;;18.80;66.56;102146.84;2063369;28;20050;-60
2022/07/22 00:24:27;;;;;;;0.10;0.10;;;17.50;77.80;;;18.81;66.47;102153.09;2058942;28;20054;-61
2022/07/22 00:25:30;;;;;;;0.10;0.10;;;17.50;77.80;;;18.80;66.30;102152.31;2058834;28;20050;-60
2022/07/22 00:26:33;;;;;;;0.03;0.03;;;17.40;77.80;;;18.80;66.40;102155.06;2057243;28;20130;-61
2022/07/22 00:27:35;;;;;;;0.10;0.10;;;17.40;77.90;;;18.80;66.40;102155.06;2065073;28;20058;-60
2022/07/22 00:28:39;;;;;;;0.00;0.00;;;17.40;78.00;;;18.81;66.54;102153.88;2056556;28;20561;-62
2022/07/22 00:29:41;;;;;;;0.00;0.00;;;17.40;78.10;;;18.81;66.55;102151.16;2072207;28;20666;-60
2022/07/22 00:30:45;;;;;;;0.10;0.10;;;17.40;78.10;;;18.80;66.24;102149.59;2060037;28;20089;-61
2022/07/22 00:31:47;;;;;;;0.10;0.10;;;17.40;78.60;;;18.79;66.56;102155.41;2056175;28;20114;-60
2022/07/22 00:32:51;;;;;;;0.10;0.10;;;17.40;78.10;;;18.79;66.54;102145.25;2057056;28;20094;-61
2022/07/22 00:33:55;;;;;;;0.10;0.10;;;17.40;78.30;;;18.75;66.67;102141.66;2055730;28;20101;-60
2022/07/22 00:34:58;;;;;;;0.10;0.10;;;17.40;78.20;;;18.76;66.68;102145.97;2056536;28;20058;-60
2022/07/22 00:36:01;;;;;;;0.10;0.10;;;17.40;78.30;;;18.76;66.97;102147.91;2056810;28;20553;-61
2022/07/22 00:37:06;;;;;;;0.10;0.10;;;17.40;78.30;;;18.77;66.77;102147.56;2057072;28;20047;-60
2022/07/22 00:38:08;;;;;;;0.00;0.00;;;17.40;78.40;;;18.78;66.66;102149.16;2065294;28;20506;-60
2022/07/22 00:39:12;;;;;;;0.10;0.10;;;17.40;78.30;;;18.76;66.35;102148.72;2067513;28;20066;-61
2022/07/22 00:40:15;;;;;;;0.10;0.10;;;17.40;78.10;;;18.77;66.27;102153.03;2064528;28;20050;-60
2022/07/22 00:41:19;;;;;;;0.10;0.10;;;17.40;78.00;;;18.77;66.30;102157.72;2064150;28;20054;-60
2022/07/22 00:42:22;;;;;;;0.10;0.10;;;17.50;77.90;;;18.78;65.89;102156.56;2063820;28;20108;-61
2022/07/22 00:43:26;;;;;;;0.00;0.00;;;17.40;77.60;;;18.77;66.15;102153.03;2065111;28;20061;-60
2022/07/22 00:44:28;;;;;;;0.00;0.00;;;17.50;77.60;;;18.79;66.03;102150.72;2064557;28;20050;-61
2022/07/22 00:45:40;;;;;;;0.00;0.00;;;17.50;77.60;;;18.79;66.19;102152.69;2064412;28;20046;-62
2022/07/22 00:46:43;;;;;;;0.10;0.10;;;17.50;77.70;;;18.79;66.25;102155.41;2048480;28;20514;-60
2022/07/22 00:47:47;;;;;;;0.00;0.00;;;17.40;77.70;;;18.78;66.42;102154.63;2056395;28;20457;-60
2022/07/22 00:48:51;;;;;;;0.10;0.10;;;17.50;77.80;;;18.78;66.27;102156.56;2064945;28;20125;-60
2022/07/22 00:49:54;;;;;;;0.10;0.10;;;17.50;77.60;;;18.79;66.15;102150.72;2057038;28;20051;-60
2022/07/22 00:50:57;;;;;;;0.10;0.10;;;17.50;77.60;;;18.78;65.82;102154.63;2056139;28;20085;-60
2022/07/22 00:52:01;;;;;;;0.10;0.10;;;17.50;77.40;;;18.73;65.88;102140.44;2057161;28;20058;-60
2022/07/22 00:53:03;;;;;;;0.10;0.10;;;17.50;77.30;;;18.77;66.00;102153.03;2047964;28;20066;-59
2022/07/22 00:54:08;;;;;;;0.00;0.00;;;17.50;77.20;;;18.77;65.79;102157.72;2048398;28;20086;-61
2022/07/22 00:55:10;;;;;;;0.00;0.00;;;17.50;77.10;;;18.76;65.75;102147.91;2057070;28;20400;-60
2022/07/22 00:56:16;;;;;;;0.10;0.10;;;17.50;77.00;;;18.77;65.34;102150.31;2059473;28;20505;-60
2022/07/22 00:57:19;;;;;;;0.10;0.10;;;17.50;76.80;;;18.78;65.69;102149.16;2064921;28;20130;-63
2022/07/22 00:58:22;;;;;;;0.10;0.10;;;17.40;76.80;;;18.77;65.46;102147.56;2064525;28;20058;-60
2022/07/22 00:59:25;;;;;;;0.10;0.10;;;17.40;76.80;;;18.76;65.31;102145.97;2061792;28;20201;-60
2022/07/22 01:00:28;;;;;;;0.10;0.10;;;17.40;76.80;;;18.78;65.26;102149.16;2056263;28;20075;-63
2022/07/22 01:01:31;;;;;;;0.10;0.10;;;17.40;76.70;;;18.78;65.25;102148.34;2061041;28;20517;-60
2022/07/22 01:02:36;;;;;;;0.10;0.10;;;17.40;76.50;;;18.77;65.04;102158.53;2064904;28;20514;-60
2022/07/22 01:03:39;;;;;;;0.10;0.10;;;17.40;76.40;;;18.75;64.98;102155.34;2063752;28;20062;-61
2022/07/22 01:04:49;;;;;;;0.10;0.10;;;17.40;76.30;;;18.74;64.89;102163.94;2060940;28;20054;-60
2022/07/22 01:05:53;;;;;;;0.05;0.05;;;17.40;76.20;;;18.72;64.89;102158.00;2056534;28;20491;-60
2022/07/22 01:06:57;;;;;;;0.00;0.00;;;17.40;76.00;;;18.72;64.50;102158.81;2056836;28;20470;-59
2022/07/22 01:08:04;;;;;;;0.10;0.10;;;17.40;76.20;;;18.70;64.26;102158.38;2060005;28;20058;-61
2022/07/22 01:09:08;;;;;;;0.10;0.10;;;17.40;75.50;;;18.67;64.44;102155.56;2062269;28;20145;-60
2022/07/22 01:10:11;;;;;;;0.10;0.10;;;17.40;75.40;;;18.63;63.92;102152.00;2062474;28;20078;-60
2022/07/22 01:11:20;;;;;;;0.03;0.03;;;17.40;75.20;;;18.65;64.23;102161.41;2060760;28;20511;-60
2022/07/22 01:12:23;;;;;;;0.05;0.05;;;17.30;75.10;;;18.63;64.03;102147.28;2047816;28;20070;-60
2022/07/22 01:13:27;;;;;;;0.10;0.10;;;17.30;75.20;;;18.65;64.18;102150.47;2052859;28;20447;-60
2022/07/22 01:14:30;;;;;;;0.10;0.10;;;17.40;75.30;;;18.65;64.29;102150.47;2060508;28;20473;-60
2022/07/22 01:15:33;;;;;;;0.10;0.10;;;17.30;75.40;;;18.66;64.12;102157.50;2055851;28;20076;-64
2022/07/22 01:16:37;;;;;;;0.10;0.10;;;17.40;75.30;;;18.64;64.34;102156.31;2059224;28;20058;-60
2022/07/22 01:17:40;;;;;;;0.10;0.10;;;17.40;75.10;;;18.66;64.31;102154.00;2064667;28;20047;-60
2022/07/22 01:18:46;;;;;;;0.10;0.10;;;17.40;75.20;;;18.67;63.99;102153.63;2043748;28;20396;-59
2022/07/22 01:19:48;;;;;;;0.10;0.10;;;17.40;75.00;;;18.67;63.53;102148.16;2046060;28;20135;-60
2022/07/22 01:20:53;;;;;;;0.10;0.10;;;17.40;74.70;;;18.67;63.82;102159.09;2064746;28;20057;-60
2022/07/22 01:21:56;;;;;;;0.00;0.00;;;17.40;74.70;;;18.68;63.96;102152.47;2059576;28;20069;-60
2022/07/22 01:22:59;;;;;;;0.00;0.00;;;17.40;74.90;;;18.68;63.97;102154.44;2059829;28;20058;-60
2022/07/22 01:24:04;;;;;;;0.03;0.03;;;17.40;74.60;;;18.65;63.78;102152.41;2064702;28;20106;-60
2022/07/22 01:25:07;;;;;;;0.10;0.10;;;17.40;74.50;;;18.66;63.53;102160.25;2059717;28;20062;-60
2022/07/22 01:26:11;;;;;;;0.10;0.10;;;17.40;74.40;;;18.65;63.54;102155.94;2055732;28;20410;-60
2022/07/22 01:27:14;;;;;;;0.10;0.10;;;17.40;74.30;;;18.65;63.27;102160.59;2048034;29;20539;-60
2022/07/22 01:28:17;;;;;;;0.10;0.10;;;17.40;74.20;;;18.65;63.24;102160.59;2047370;28;20109;-61
2022/07/22 01:29:20;;;;;;;0.10;0.10;;;17.30;74.00;;;18.64;63.55;102157.09;2057793;28;20059;-61
2022/07/22 01:30:24;;;;;;;0.10;0.10;;;17.40;74.10;;;18.61;63.08;102155.09;2056160;28;20058;-61
2022/07/22 01:31:28;;;;;;;0.00;0.00;;;17.40;74.20;;;18.60;63.57;102158.97;2056747;28;20050;-60
2022/07/22 01:32:33;;;;;;;0.08;0.08;;;17.30;74.40;;;18.59;63.75;102151.91;2047579;28;20051;-59
2022/07/22 01:33:41;;;;;;;0.03;0.03;;;17.30;74.50;;;18.58;63.75;102155.81;2048960;28;20074;-62
2022/07/22 01:34:45;;;;;;;0.10;0.10;;;17.40;74.70;;;18.60;63.98;102152.72;2057282;28;20046;-60
2022/07/22 01:35:49;;;;;;;0.10;0.10;;;17.30;74.60;;;18.59;63.87;102146.44;2060595;28;20399;-60
2022/07/22 01:36:54;;;;;;;0.10;0.10;;;17.30;74.70;;;18.58;63.99;102149.56;2048088;29;20543;-60
2022/07/22 01:37:58;;;;;;;0.10;0.10;;;17.30;74.90;;;18.57;64.22;102147.94;2045787;28;20047;-60
2022/07/22 01:39:01;;;;;;;0.10;0.10;;;17.30;75.00;;;18.56;64.04;102147.19;2047588;28;20408;-60
2022/07/22 01:40:07;;;;;;;0.10;0.10;;;17.30;75.00;;;18.55;64.39;102155.75;2056003;28;20138;-60
2022/07/22 01:41:11;;;;;;;0.10;0.10;;;17.30;75.20;;;18.56;64.48;102147.19;2055991;28;20059;-60
2022/07/22 01:42:15;;;;;;;0.10;0.10;;;17.30;75.50;;;18.57;64.79;102153.41;2063828;28;20137;-60
2022/07/22 01:43:20;;;;;;;0.10;0.10;;;17.30;75.40;;;18.57;64.26;102153.41;2053346;28;20094;-59
2022/07/22 01:44:29;;;;;;;0.10;0.10;;;17.30;75.40;;;18.55;64.21;102150.28;2047266;28;20059;-60
2022/07/22 01:45:34;;;;;;;0.00;0.00;;;17.30;75.10;;;18.55;64.06;102151.03;2041167;28;20055;-60
2022/07/22 01:46:39;;;;;;;0.10;0.10;;;17.30;74.90;;;18.55;64.07;102151.03;2046622;28;20055;-63
2022/07/22 01:47:44;;;;;;;0.10;0.10;;;17.30;74.80;;;18.57;63.77;102153.41;2043286;28;20047;-60
2022/07/22 01:48:48;;;;;;;0.10;0.10;;;17.30;74.50;;;18.54;63.55;102154.94;2048348;28;20058;-60
2022/07/22 01:49:56;;;;;;;0.10;0.10;;;17.30;74.20;;;18.55;63.18;102162.00;2047281;28;20058;-60
2022/07/22 01:51:01;;;;;;;0.10;0.10;;;17.30;73.90;;;18.54;63.10;102154.16;2054715;28;20077;-60
2022/07/22 01:52:06;;;;;;;0.10;0.10;;;17.20;73.80;;;18.53;63.14;102160.78;2056590;28;20054;-60
2022/07/22 01:53:12;;;;;;;0.10;0.10;;;17.20;73.90;;;18.54;62.92;102159.63;2052919;28;20043;-61
2022/07/22 01:54:20;;;;;;;0.10;0.10;;;17.20;73.80;;;18.55;62.66;102155.75;2048250;28;20408;-62
2022/07/22 01:55:27;;;;;;;0.00;0.00;;;17.20;73.80;;;18.55;62.92;102150.28;2056061;28;20134;-64
2022/07/22 01:56:31;;;;;;;0.10;0.10;;;17.10;73.80;;;18.53;62.67;102153.38;2054903;28;20094;-61
2022/07/22 01:57:36;;;;;;;0.10;0.10;;;17.10;73.60;;;18.52;62.23;102157.25;2058754;28;20518;-61
2022/07/22 01:58:51;;;;;;;0.10;0.10;;;17.10;73.50;;;18.50;62.34;102154.09;2055793;28;20070;-60
2022/07/22 01:59:58;;;;;;;0.10;0.10;;;17.10;73.50;;;18.50;62.42;102151.38;2048905;28;20109;-60
2022/07/22 02:01:02;;;;;;;0.10;0.10;;;17.10;73.60;;;18.49;62.58;102151.72;2047708;28;20043;-60
2022/07/22 02:02:05;;;;;;;0.10;0.10;;;17.10;73.90;;;18.47;62.77;102149.34;2056155;28;20054;-60
2022/07/22 02:03:10;;;;;;;0.10;0.10;;;17.10;73.90;;;18.48;62.68;102150.13;2048281;28;20070;-60
2022/07/22 02:04:12;;;;;;;0.10;0.10;;;17.00;73.90;;;18.46;62.71;102155.97;2047894;28;20543;-60
2022/07/22 02:05:16;;;;;;;0.00;0.00;;;17.10;73.90;;;18.44;62.94;102157.50;2055665;28;20111;-60
2022/07/22 02:06:20;;;;;;;0.00;0.00;;;17.10;73.90;;;18.43;62.91;102153.16;2048037;28;20059;-61
2022/07/22 02:07:27;;;;;;;0.10;0.10;;;17.10;73.90;;;18.42;62.91;102155.13;2055589;28;20137;-62
2022/07/22 02:08:31;;;;;;;0.10;0.10;;;17.10;73.90;;;18.41;62.93;102150.78;2055209;28;20078;-61
2022/07/22 02:09:50;;;;;;;0.10;0.10;;;17.10;74.00;;;18.42;63.15;102151.59;2058565;28;20061;-60
2022/07/22 02:10:54;;;;;;;0.10;0.10;;;17.10;74.10;;;18.42;63.05;102152.38;2054973;28;20055;-61
2022/07/22 02:11:56;;;;;;;0.10;0.10;;;17.10;74.00;;;18.43;63.30;102151.22;2053777;28;20514;-60
2022/07/22 02:13:00;;;;;;;0.00;0.00;;;17.10;74.10;;;18.43;63.19;102148.47;2055621;28;20055;-60
2022/07/22 02:14:03;;;;;;;0.10;0.10;;;17.10;74.10;;;18.45;63.30;102151.66;2046986;28;20484;-60
2022/07/22 02:15:08;;;;;;;0.05;0.05;;;17.20;74.20;;;18.44;63.82;102144.59;2047544;29;20058;-63
2022/07/22 02:16:11;;;;;;;0.10;0.10;;;17.20;74.30;;;18.47;63.83;102148.56;2048342;28;20133;-64
2022/07/22 02:17:21;;;;;;;0.05;0.05;;;17.20;74.40;;;18.48;63.62;102150.94;2051844;28;20583;-60
2022/07/22 02:18:25;;;;;;;0.00;0.00;;;17.20;74.40;;;18.47;63.73;102149.34;2056028;28;20451;-61
2022/07/22 02:19:27;;;;;;;0.10;0.10;;;17.20;74.30;;;18.47;63.58;102149.34;2063319;28;20058;-60
2022/07/22 02:20:31;;;;;;;0.10;0.10;;;17.20;74.40;;;18.49;63.53;102151.72;2063563;28;20422;-60
2022/07/22 02:21:36;;;;;;;0.03;0.03;;;17.20;74.60;;;18.48;63.59;102153.66;2055730;28;20486;-60
2022/07/22 02:22:40;;;;;;;0.10;0.10;;;17.20;74.60;;;18.47;63.63;102149.34;2054066;28;20082;-60
2022/07/22 02:23:43;;;;;;;0.08;0.08;;;17.20;74.50;;;18.46;63.97;102153.22;2055121;28;20071;-60
2022/07/22 02:24:46;;;;;;;0.00;0.00;;;17.20;74.70;;;18.49;63.94;102151.72;2056066;28;20067;-60
2022/07/22 02:25:49;;;;;;;0.10;0.10;;;17.20;74.70;;;18.48;63.81;102152.88;2054614;28;20811;-60
2022/07/22 02:26:52;;;;;;;0.10;0.10;;;17.20;74.80;;;18.48;64.11;102153.66;2056034;28;20569;-60
2022/07/22 02:27:55;;;;;;;0.10;0.10;;;17.20;74.80;;;18.48;64.19;102148.19;2062813;28;20089;-60
2022/07/22 02:28:58;;;;;;;0.10;0.10;;;17.20;74.90;;;18.45;64.02;102146.19;2065091;28;20553;-61
2022/07/22 02:30:02;;;;;;;0.10;0.10;;;17.20;75.10;;;18.46;64.06;102147.75;2063349;28;20062;-61
2022/07/22 02:31:05;;;;;;;0.10;0.10;;;17.10;75.10;;;18.47;64.62;102149.34;2048708;28;20051;-60
2022/07/22 02:32:09;;;;;;;0.10;0.10;;;17.20;75.20;;;18.46;64.47;102145.03;2039992;29;20051;-61
2022/07/22 02:33:12;;;;;;;0.10;0.10;;;17.10;75.20;;;18.47;64.43;102143.84;2040126;28;20043;-60
2022/07/22 02:34:17;;;;;;;0.10;0.10;;;17.20;75.40;;;18.47;64.48;102141.13;2047347;28;20498;-60
2022/07/22 02:35:20;;;;;;;0.10;0.10;;;17.10;75.30;;;18.47;64.29;102143.09;2047684;29;20062;-60
2022/07/22 02:36:24;;;;;;;0.10;0.10;;;17.20;75.40;;;18.45;64.42;102143.44;2046305;28;20519;-60
2022/07/22 02:37:27;;;;;;;0.10;0.10;;;17.10;75.20;;;18.43;64.85;102143.03;2047615;28;20162;-61
2022/07/22 02:38:32;;;;;;;0.10;0.10;;;17.10;75.80;;;18.42;64.31;102146.13;2055759;28;20422;-61
2022/07/22 02:39:35;;;;;;;0.10;0.10;;;17.10;75.10;;;18.41;64.11;102144.53;2053375;28;20050;-65
2022/07/22 02:40:39;;;;;;;0.10;0.10;;;17.10;74.90;;;18.40;63.74;102143.75;2055738;28;20542;-62
2022/07/22 02:41:42;;;;;;;0.03;0.03;;;17.10;74.50;;;18.39;63.47;102146.84;2047740;29;20062;-64
2022/07/22 02:42:45;;;;;;;0.10;0.10;;;17.10;74.30;;;18.37;63.41;102146.38;2042360;28;20074;-61
2022/07/22 02:43:47;;;;;;;0.10;0.10;;;17.10;74.10;;;18.36;63.37;102156.50;2040136;29;20423;-61
2022/07/22 02:44:51;;;;;;;0.10;0.10;;;17.10;73.90;;;18.34;63.39;102144.34;2047004;28;20527;-61
2022/07/22 02:45:54;;;;;;;0.10;0.10;;;17.10;73.70;;;18.33;63.53;102145.53;2056893;28;20076;-60
2022/07/22 02:46:57;;;;;;;0.00;0.00;;;17.10;73.60;;;18.32;63.56;102152.94;2064332;28;20094;-61
2022/07/22 02:48:06;;;;;;;0.10;0.10;;;17.10;73.70;;;18.34;63.72;102149.84;2058745;28;20097;-61
2022/07/22 02:49:10;;;;;;;0.10;0.10;;;17.10;73.80;;;18.34;63.10;102150.63;2047669;29;20051;-61
2022/07/22 02:50:13;;;;;;;0.10;0.10;;;17.10;73.60;;;18.34;63.27;102147.91;2048128;28;20055;-59
2022/07/22 02:51:17;;;;;;;0.10;0.10;;;17.10;73.40;;;18.35;62.95;102151.41;2050041;28;20617;-61
2022/07/22 02:52:21;;;;;;;0.10;0.10;;;17.10;73.30;;;18.35;62.75;102146.72;2048040;28;20048;-59
2022/07/22 02:53:23;;;;;;;0.10;0.10;;;17.10;73.10;;;18.34;62.87;102147.91;2047569;28;20054;-59
2022/07/22 02:54:29;;;;;;;0.10;0.10;;;17.10;73.00;;;18.32;62.75;102144.72;2040926;28;20052;-62
2022/07/22 02:55:32;;;;;;;0.10;0.10;;;17.10;72.90;;;18.31;62.29;102142.34;2056148;28;20513;-60
2022/07/22 02:56:36;;;;;;;0.10;0.10;;;17.10;72.80;;;18.32;62.49;102152.13;2057344;28;20098;-61
2022/07/22 02:57:40;;;;;;;0.10;0.10;;;17.10;72.70;;;18.30;62.17;102148.97;2053188;28;20050;-61
2022/07/22 02:58:42;;;;;;;0.10;0.10;;;17.00;72.40;;;18.28;61.90;102146.59;2062484;28;20092;-60
2022/07/22 02:59:46;;;;;;;0.10;0.10;;;17.10;72.30;;;18.28;61.79;102145.81;2057818;28;20046;-63
2022/07/22 03:00:48;;;;;;;0.10;0.10;;;17.00;72.20;;;18.28;61.80;102151.28;2050578;28;20539;-60
2022/07/22 03:01:53;;;;;;;0.10;0.10;;;17.00;72.10;;;18.28;62.03;102154.00;2056883;28;20478;-60
2022/07/22 03:02:55;;;;;;;0.10;0.10;;;17.00;72.20;;;18.28;61.98;102146.59;2048907;28;20141;-61
2022/07/22 03:03:59;;;;;;;0.10;0.10;;;17.00;72.20;;;18.27;61.94;102139.53;2057210;28;20050;-60
2022/07/22 03:05:05;;;;;;;0.00;0.00;;;17.10;72.20;;;18.29;62.11;102150.91;2056835;28;20059;-59
2022/07/22 03:06:10;;;;;;;0.08;0.08;;;17.00;72.30;;;18.31;61.97;102154.09;2049566;28;20554;-60
2022/07/22 03:07:43;;;;;;;0.10;0.10;;;17.00;72.30;;;18.35;62.04;102154.94;2047017;28;20047;-60
2022/07/22 03:08:50;;;;;;;0.05;0.05;;;17.00;72.50;;;18.34;61.75;102147.91;2057973;28;20475;-60
2022/07/22 03:09:55;;;;;;;0.10;0.10;;;17.00;72.50;;;18.32;62.26;102152.94;2064800;28;20046;-61
2022/07/22 03:11:05;;;;;;;0.00;0.00;;;17.10;72.50;;;18.31;62.21;102156.81;2059064;28;20095;-60
2022/07/22 03:12:08;;;;;;;0.10;0.10;;;17.00;72.40;;;18.27;62.32;102153.22;2048880;28;20427;-59
2022/07/22 03:13:11;;;;;;;0.00;0.00;;;17.00;72.50;;;18.26;62.35;102154.38;2049216;29;20066;-59
2022/07/22 03:14:16;;;;;;;0.10;0.10;;;17.00;73.00;;;18.26;62.43;102154.38;2052522;28;20057;-59
2022/07/22 03:15:18;;;;;;;0.00;0.00;;;17.10;72.50;;;18.26;62.48;102154.38;2049065;29;20071;-60
2022/07/22 03:16:22;;;;;;;0.10;0.10;;;17.10;72.50;;;18.26;62.44;102159.03;2055091;28;20534;-60
2022/07/22 03:17:25;;;;;;;0.00;0.00;;;17.10;72.50;;;18.28;62.28;102154.81;2059281;28;20547;-60
2022/07/22 03:18:28;;;;;;;0.10;0.10;;;17.10;72.50;;;18.29;62.39;102158.31;2065669;28;20086;-60
2022/07/22 03:19:32;;;;;;;0.10;0.10;;;17.00;72.50;;;18.31;62.15;102161.50;2051149;28;20047;-60
2022/07/22 03:20:36;;;;;;;0.10;0.10;;;17.00;72.50;;;18.31;62.26;102156.03;2049150;28;20067;-60
2022/07/22 03:21:40;;;;;;;0.10;0.10;;;17.10;72.60;;;18.32;62.18;102158.41;2057684;28;20050;-59
2022/07/22 03:22:43;;;;;;;0.10;0.10;;;17.00;72.60;;;18.32;62.11;102146.66;2055754;28;20039;-59
2022/07/22 03:23:47;;;;;;;0.00;0.00;;;17.00;72.60;;;18.31;62.24;102156.03;2049230;28;20051;-60
2022/07/22 03:24:50;;;;;;;0.00;0.00;;;17.00;72.60;;;18.31;62.09;102153.28;2056714;28;20062;-60
2022/07/22 03:25:57;;;;;;;0.10;0.10;;;17.00;72.60;;;18.32;62.36;102154.84;2050378;28;20051;-60
2022/07/22 03:27:00;;;;;;;0.00;0.00;;;17.00;72.70;;;18.32;62.44;102144.72;2052160;28;20091;-60
2022/07/22 03:28:07;;;;;;;0.00;0.00;;;17.00;72.90;;;18.34;62.39;102153.38;2050171;28;20051;-60
2022/07/22 03:29:11;;;;;;;0.10;0.10;;;17.00;73.00;;;18.31;62.54;102154.09;2041177;29;20055;-60
2022/07/22 03:30:16;;;;;;;0.10;0.10;;;17.00;73.00;;;18.33;62.82;102148.25;2055333;28;20054;-60
2022/07/22 03:31:19;;;;;;;0.00;0.00;;;17.00;73.10;;;18.33;62.91;102149.03;2055657;28;20050;-60
2022/07/22 03:32:23;;;;;;;0.10;0.10;;;17.00;73.30;;;18.31;62.73;102148.63;2057150;28;20458;-61
2022/07/22 03:33:27;;;;;;;0.10;0.10;;;17.00;73.40;;;18.32;63.04;102152.94;2056069;28;20577;-60
2022/07/22 03:34:31;;;;;;;0.10;0.10;;;17.00;73.40;;;18.32;62.96;102150.19;2055007;28;20051;-60
2022/07/22 03:35:40;;;;;;;;;;;17.00;73.50;;;18.36;62.95;102153.00;2049388;29;20055;-60
2022/07/22 03:36:44;;;;;;;0.08;0.08;;;17.00;73.30;;;18.35;62.79;102160.41;2042581;28;20009;-60
2022/07/22 03:37:47;;;;;;;0.10;0.10;;;17.00;73.60;;;18.33;62.95;102159.97;2048920;28;20070;-60
2022/07/22 03:38:51;;;;;;;0.10;0.10;;;17.00;73.60;;;18.31;63.25;102161.50;2048749;28;20183;-60
2022/07/22 03:39:55;;;;;;;0.10;0.10;;;17.00;73.70;;;18.31;62.83;102162.28;2046419;29;20039;-60
2022/07/22 03:41:00;;;;;;;0.03;0.03;;;17.00;73.80;;;18.30;63.01;102160.69;2049206;28;20055;-64
2022/07/22 03:42:06;;;;;;;0.10;0.10;;;17.00;73.90;;;18.31;63.09;102165.03;2048739;28;20058;-60
2022/07/22 03:43:16;;;;;;;0.10;0.10;;;17.00;73.90;;;18.33;62.97;102164.66;2052206;28;20247;-60
2022/07/22 03:44:23;;;;;;;0.00;0.00;;;17.00;74.00;;;18.30;63.37;102155.22;2048914;29;20172;-62
2022/07/22 03:45:26;;;;;;;0.10;0.10;;;17.00;74.10;;;18.32;63.56;102163.06;2056671;28;20058;-60
2022/07/22 03:46:30;;;;;;;0.10;0.10;;;17.00;74.20;;;18.30;63.69;102157.19;2056831;28;20059;-59
2022/07/22 03:47:33;;;;;;;0.00;0.00;;;17.00;74.30;;;18.31;63.87;102156.81;2048912;29;20051;-60
2022/07/22 03:48:36;;;;;;;0.00;0.00;;;17.00;74.40;;;18.32;63.84;102152.94;2054697;28;20054;-60
2022/07/22 03:49:39;;;;;;;0.10;0.10;;;17.00;74.50;;;18.32;63.94;102161.13;2064323;28;20062;-60
2022/07/22 03:50:45;;;;;;;0.10;0.10;;;17.00;74.50;;;18.34;64.08;102166.22;2048905;29;20054;-63
2022/07/22 03:51:50;;;;;;;0.10;0.10;;;17.00;74.60;;;18.33;64.06;102161.94;2044976;28;20062;-60
2022/07/22 03:52:56;;;;;;;0.10;0.10;;;17.00;74.80;;;18.33;63.97;102159.19;2056995;28;20146;-65
2022/07/22 03:53:58;;;;;;;0.10;0.10;;;17.00;74.80;;;18.36;64.18;102161.22;2053223;28;20062;-60
2022/07/22 03:55:02;;;;;;;0.10;0.10;;;17.10;74.80;;;18.36;64.12;102163.94;2052894;28;20086;-60
2022/07/22 03:56:07;;;;;;;0.10;0.10;;;17.10;74.80;;;18.38;64.18;102161.66;2041103;29;20063;-60
2022/07/22 03:57:11;;;;;;;0.10;0.10;;;17.10;74.90;;;18.39;64.21;102160.50;2047759;28;20435;-60
2022/07/22 03:58:15;;;;;;;0.10;0.10;;;17.10;75.00;;;18.40;64.36;102157.41;2047635;29;20134;-60
2022/07/22 03:59:20;;;;;;;0.08;0.08;;;17.10;74.90;;;18.41;64.22;102158.22;2041308;29;20099;-60
2022/07/22 04:00:23;;;;;;;0.10;0.10;;;17.10;74.70;;;18.40;63.89;102160.16;2053482;28;20054;-60
2022/07/22 04:01:26;;;;;;;0.10;0.10;;;17.10;75.30;;;18.41;63.79;102161.72;2057464;28;20502;-60
2022/07/22 04:02:29;;;;;;;0.10;0.10;;;17.10;74.60;;;18.42;63.65;102160.59;2057554;28;20054;-60
2022/07/22 04:03:33;;;;;;;0.10;0.10;;;17.10;74.40;;;18.43;63.26;102164.09;2047826;28;20047;-60
2022/07/22 04:04:47;;;;;;;0.10;0.10;;;17.10;74.30;;;18.42;63.14;102160.59;2052195;28;20051;-60
2022/07/22 04:05:52;;;;;;;0.05;0.05;;;17.00;74.10;;;18.42;62.93;102157.06;2056422;28;20473;-60
2022/07/22 04:07:06;;;;;;;0.10;0.10;;;17.00;73.80;;;18.39;62.25;102158.56;2049734;28;20043;-59
2022/07/22 04:08:11;;;;;;;0.10;0.10;;;17.00;73.30;;;18.37;62.25;102158.13;2049216;28;20480;-60
2022/07/22 04:09:16;;;;;;;0.10;0.10;;;17.00;73.00;;;18.34;61.70;102156.09;2047923;28;20408;-60
2022/07/22 04:10:18;;;;;;;0.10;0.10;;;17.00;72.80;;;18.32;62.00;102163.06;2055478;28;20601;-60
2022/07/22 04:11:23;;;;;;;0.10;0.10;;;17.00;72.50;;;18.31;61.77;102165.03;2048750;29;20051;-60
2022/07/22 04:12:26;;;;;;;0.10;0.10;;;17.00;72.40;;;18.32;61.67;102158.41;2054019;28;20119;-60
2022/07/22 04:13:45;;;;;;;0.10;0.10;;;17.00;72.40;;;18.30;61.62;102163.44;2055849;28;20137;-60
2022/07/22 04:14:48;;;;;;;0.10;0.10;;;17.00;72.20;;;18.30;61.59;102168.88;2057063;28;20058;-60
2022/07/22 04:15:51;;;;;;;0.20;0.20;;;17.00;72.10;;;18.30;61.66;102165.38;2059612;28;20059;-61
2022/07/22 04:16:55;;;;;;;0.10;0.10;;;17.00;72.40;;;18.30;61.82;102165.38;2057353;28;20599;-60
2022/07/22 04:17:57;;;;;;;0.10;0.10;;;17.00;72.30;;;18.31;61.76;102169.69;2056512;28;20073;-60
2022/07/22 04:19:02;;;;;;;0.17;0.17;;;17.00;72.40;;;18.31;62.21;102170.50;2048028;28;20500;-60
2022/07/22 04:20:24;;;;;;;0.10;0.10;;;17.00;72.60;;;18.34;62.07;102164.31;2056117;28;20142;-60
2022/07/22 04:22:06;;;;;;;0.10;0.10;;;17.00;72.70;;;18.35;61.82;102163.13;2045779;28;20062;-60
2022/07/22 04:23:08;;;;;;;0.10;0.10;;;17.00;72.80;;;18.35;62.05;102162.34;2060063;28;20055;-59
2022/07/22 04:24:13;;;;;;;0.10;0.10;;;17.00;72.80;;;18.33;62.16;102159.19;2056527;28;20058;-60
2022/07/22 04:25:15;;;;;;;0.10;0.10;;;17.10;72.80;;;18.29;62.34;102163.78;2048511;29;20063;-60
2022/07/22 04:26:19;;;;;;;0.10;0.10;;;17.00;72.80;;;18.32;62.33;102157.59;2047309;28;20104;-60
2022/07/22 04:27:24;;;;;;;0.10;0.10;;;17.00;72.90;;;18.34;62.35;102158.84;2046230;28;20438;-60
2022/07/22 04:28:27;;;;;;;0.20;0.20;;;17.00;73.00;;;18.35;62.36;102165.88;2048752;28;20077;-60